< < Back
Terminal Aerodrome Forecast


Current Version              Previous Versions:   1  2  3  4  5  6  7  8  9  

Terminal Aerodrome Forecast

441
FTUS42 KFFC 011729
TAFMCN
TAF
KMCN 011729Z 0118/0218 28009KT P6SM SCT040
      TEMPO 0122/0202 VRB15G25KT 4SM TSRA BKN035CB
     FM020200 28006KT P6SM BKN100
     FM020800 26005KT P6SM SCT015 BKN050
     FM021400 27008KT P6SM BKN050
     FM021600 26007KT P6SM VCSH BKN050 PROB30 0216/0218 6SM TSRA
      BKN035CB=

Latest METAR

555
SAUS80 KWBC 012300 RRD
MTRMCN
METAR KMCN 012253Z 31008KT 8SM CLR 30/21 A3001 RMK AO2 SLP158
T03000211


USA.gov is the U.S. government's official web portal to all federal, state and local government web resources and services.